In Rescue
 
Open Full Screen Window  High Contrast Mode
April 02, 2020 11:36 PM EDT
Weather Information
Wind Direction
  ---
Wind Speed
  00 kt (0 mph)
Wind Gust
  00 kt (0 mph)
Altimeter
30.12 in
Visibility
10 SM
Temperature
00° C
32° F
Dewpoint
-03° C
27° F
Humidity
80%
Sky Condition
Clear
VFR

METAR KFKS 030336Z AUTO 00000KT 10SM CLR 00/M03 A3012 RMK AO2 T00001026

FAA Disclaimer: The data displayed is for advisory purposes only and is not to be used for flight planning or operations.